メインページ
METAR-TAF:

METAR-TAF

空港 :

Grayling Army Airfield

Grayling, ミシガン州, アメリカ合衆国

緯度: 44-40-49N, 経度: 084-43-44W, 海抜: 353m

現時点の気象観測

当レポートは37分前の01:58(UTC)に作成
北西の風 4kt
気温 -6°C
湿度 79%
気圧 1025 hPa
視程: 16.1km

METAR: KGOV 070158Z AUTO 31004KT 10SM M M06/M09 A3027 RMK AO2 SLP275 T10581087 $

時間: 21:35 (02:35 UTC)


TAF: 見つかりません

4,000以上の空港の気象観測と天気予報(METAR報とTAF報)

利用可能な観測所は地図上に黄色い丸と赤い丸で示す。

丸の上にカーソルを重ねると観測所名を参照できる。

次にクリックすると気象観測と天気予報を参照できる。

マップの切り替え:黒色「×」印の緑ボタンをクリックして拡大、「-」印の緑ボタンをクリックして縮小、緑色の三角印をクリックして隣りの地図に切り替え


METAR-TAF: